Time;durP1;ratioP1;P1;durP2;ratioP2;P2;SDS_P1;SDS_P2;PMS_P1;PMS_P2;Temp;Humidity;BMP_temperature;BMP_pressure;BME280_temperature;BME280_humidity;BME280_pressure;Samples;Min_cycle;Max_cycle;Signal;HPM_P1;HPM_P2
2020/12/25 00:01:23;;;;;;;5.03;1.00;;;4.20;99.90;;;;;;5055637;28;20282;-77
2020/12/25 00:03:49;;;;;;;5.50;1.40;;;4.20;99.90;;;;;;5055602;28;20196;-77
2020/12/25 00:06:17;;;;;;;4.57;1.20;;;4.30;99.90;;;;;;5055340;28;20255;-77
2020/12/25 00:08:43;;;;;;;5.10;0.80;;;4.40;99.90;;;;;;5055333;28;20198;-77
2020/12/25 00:11:10;;;;;;;7.40;1.63;;;4.40;99.90;;;;;;5055168;28;20232;-77
2020/12/25 00:13:36;;;;;;;5.53;1.10;;;4.30;99.90;;;;;;5055458;28;20203;-77
2020/12/25 00:16:02;;;;;;;4.23;0.90;;;4.30;99.90;;;;;;5055195;28;20221;-77
2020/12/25 00:18:29;;;;;;;3.57;0.57;;;4.30;99.90;;;;;;5055066;28;20306;-77
2020/12/25 00:20:55;;;;;;;2.50;0.53;;;4.30;99.90;;;;;;5055153;28;20207;-77
2020/12/25 00:23:23;;;;;;;4.13;0.67;;;4.20;99.90;;;;;;5055075;28;20203;-77
2020/12/25 00:25:49;;;;;;;4.27;0.87;;;4.20;99.90;;;;;;5054883;28;20211;-77
2020/12/25 00:28:15;;;;;;;4.63;1.03;;;4.30;99.90;;;;;;5054767;28;20256;-77
2020/12/25 00:30:43;;;;;;;3.73;0.60;;;4.40;99.90;;;;;;5054869;28;20739;-77
2020/12/25 00:33:09;;;;;;;5.63;0.73;;;4.30;99.90;;;;;;5054991;28;20197;-77
2020/12/25 00:35:35;;;;;;;2.93;0.63;;;4.30;99.90;;;;;;5054817;28;20196;-78
2020/12/25 00:38:02;;;;;;;4.60;0.70;;;4.20;99.90;;;;;;5054807;28;20227;-77
2020/12/25 00:40:29;;;;;;;5.07;0.87;;;4.20;99.90;;;;;;5054686;28;20192;-77
2020/12/25 00:42:55;;;;;;;3.60;0.57;;;4.30;99.90;;;;;;5054700;28;20207;-77
2020/12/25 00:45:22;;;;;;;3.90;0.80;;;4.20;99.90;;;;;;5054497;28;20744;-77
2020/12/25 00:47:48;;;;;;;4.20;0.67;;;4.10;99.90;;;;;;5054770;28;20193;-77
2020/12/25 00:50:14;;;;;;;2.23;0.60;;;4.10;99.90;;;;;;5054592;28;20289;-78
2020/12/25 00:52:41;;;;;;;1.43;0.60;;;4.00;99.90;;;;;;5054515;28;20205;-77
2020/12/25 00:55:07;;;;;;;6.80;0.80;;;4.00;99.90;;;;;;5054615;28;20204;-78
2020/12/25 00:57:34;;;;;;;4.10;1.00;;;4.00;99.90;;;;;;5054535;28;20226;-77
2020/12/25 01:00:00;;;;;;;4.00;0.50;;;3.80;99.90;;;;;;5054713;28;20230;-78
2020/12/25 01:02:29;;;;;;;3.63;0.90;;;3.80;99.90;;;;;;5054456;28;20566;-78
2020/12/25 01:04:55;;;;;;;4.73;0.67;;;3.90;99.90;;;;;;5054379;28;20202;-77
2020/12/25 01:07:22;;;;;;;5.80;0.60;;;3.70;99.90;;;;;;5054156;28;20230;-77
2020/12/25 01:09:48;;;;;;;3.90;0.73;;;3.70;99.90;;;;;;5054355;28;20690;-77
2020/12/25 01:12:14;;;;;;;3.87;0.70;;;3.70;99.90;;;;;;5053813;28;20293;-77
2020/12/25 01:14:41;;;;;;;3.63;0.60;;;3.70;99.90;;;;;;5054287;28;20293;-78
2020/12/25 01:17:08;;;;;;;6.17;0.53;;;3.70;99.90;;;;;;5054093;28;20255;-77
2020/12/25 01:19:34;;;;;;;2.53;0.60;;;3.70;99.90;;;;;;5053968;28;20245;-77
2020/12/25 01:22:00;;;;;;;4.80;0.63;;;3.70;99.90;;;;;;5053905;28;20193;-78
2020/12/25 01:24:27;;;;;;;1.73;0.60;;;3.60;99.90;;;;;;5054090;28;20628;-78
2020/12/25 01:26:54;;;;;;;1.50;0.67;;;3.60;99.90;;;;;;5054112;28;20209;-77
2020/12/25 01:29:20;;;;;;;4.97;0.80;;;3.70;99.90;;;;;;5053983;28;20297;-77
2020/12/25 01:31:47;;;;;;;5.13;0.87;;;3.70;99.90;;;;;;5053828;28;20193;-77
2020/12/25 01:34:14;;;;;;;4.13;1.17;;;3.60;99.90;;;;;;5053859;28;20677;-77
2020/12/25 01:36:40;;;;;;;3.50;0.70;;;3.60;99.90;;;;;;5053468;28;20645;-77
2020/12/25 01:39:06;;;;;;;2.63;0.50;;;3.70;99.90;;;;;;5053834;28;20197;-78
2020/12/25 01:41:33;;;;;;;3.37;0.67;;;3.70;99.90;;;;;;5053727;28;20288;-78
2020/12/25 01:44:00;;;;;;;1.83;0.70;;;3.70;99.90;;;;;;5053593;28;20201;-78
2020/12/25 01:46:27;;;;;;;2.87;0.60;;;3.60;99.90;;;;;;5054047;28;20188;-77
2020/12/25 01:48:54;;;;;;;6.40;0.90;;;3.60;99.90;;;;;;5053713;28;20201;-77
2020/12/25 01:51:21;;;;;;;6.60;1.30;;;3.60;99.90;;;;;;5053313;28;20204;-77
2020/12/25 01:53:49;;;;;;;4.43;0.67;;;3.70;99.90;;;;;;5053659;28;20312;-78
2020/12/25 01:56:18;;;;;;;3.10;0.80;;;3.70;99.90;;;;;;5053684;28;20236;-77
2020/12/25 01:58:45;;;;;;;4.50;0.90;;;3.70;99.90;;;;;;5054318;28;20206;-78
2020/12/25 02:01:11;;;;;;;2.00;0.60;;;3.70;99.90;;;;;;5053448;28;20825;-78
2020/12/25 02:03:38;;;;;;;3.87;0.90;;;3.60;99.90;;;;;;5053344;28;20251;-78
2020/12/25 02:06:05;;;;;;;3.27;0.63;;;3.50;99.90;;;;;;5053293;28;20211;-78
2020/12/25 02:08:31;;;;;;;3.63;0.77;;;3.50;99.90;;;;;;5053381;28;20206;-78
2020/12/25 02:10:58;;;;;;;3.83;0.97;;;3.50;99.90;;;;;;5053361;28;20612;-78
2020/12/25 02:13:24;;;;;;;5.90;1.10;;;3.40;99.90;;;;;;5053107;28;20291;-78
2020/12/25 02:15:51;;;;;;;1.53;0.70;;;3.30;99.90;;;;;;5053043;28;20201;-77
2020/12/25 02:18:17;;;;;;;3.10;0.70;;;3.30;99.90;;;;;;5052961;28;20232;-77
2020/12/25 02:20:44;;;;;;;3.17;0.90;;;3.30;99.90;;;;;;5053216;28;20246;-78
2020/12/25 02:23:12;;;;;;;5.53;1.10;;;3.20;99.90;;;;;;5052105;28;20251;-77
2020/12/25 02:25:38;;;;;;;7.57;1.00;;;3.20;99.90;;;;;;5052680;28;20204;-77
2020/12/25 02:28:04;;;;;;;6.63;2.00;;;3.20;99.90;;;;;;5053077;28;20197;-78
2020/12/25 02:30:31;;;;;;;6.27;1.17;;;3.10;99.90;;;;;;5052526;28;20200;-77
2020/12/25 02:32:57;;;;;;;4.50;1.57;;;3.10;99.90;;;;;;5052446;28;20300;-78
2020/12/25 02:35:23;;;;;;;3.63;0.90;;;3.00;99.90;;;;;;5052760;28;20288;-78
2020/12/25 02:37:50;;;;;;;3.50;1.50;;;3.10;99.90;;;;;;5052559;28;20229;-77
2020/12/25 02:40:17;;;;;;;6.90;1.10;;;3.00;99.90;;;;;;5052716;28;20205;-77
2020/12/25 02:42:44;;;;;;;6.60;1.00;;;3.00;99.90;;;;;;5052544;28;20205;-77
2020/12/25 02:45:10;;;;;;;3.57;1.40;;;3.10;99.90;;;;;;5052294;28;20204;-77
2020/12/25 02:47:36;;;;;;;5.80;2.43;;;3.10;99.90;;;;;;5052346;28;20197;-78
2020/12/25 02:50:04;;;;;;;6.70;3.17;;;3.00;99.90;;;;;;5052529;28;20201;-77
2020/12/25 02:52:30;;;;;;;6.93;3.07;;;3.00;99.90;;;;;;5052302;28;20208;-77
2020/12/25 02:54:56;;;;;;;4.83;1.50;;;2.90;99.90;;;;;;5052500;28;20205;-77
2020/12/25 02:57:24;;;;;;;2.90;0.80;;;2.90;99.90;;;;;;5052387;28;20225;-77
2020/12/25 02:59:50;;;;;;;8.23;1.00;;;2.90;99.90;;;;;;5052200;28;20198;-77
2020/12/25 03:02:16;;;;;;;3.77;1.00;;;2.90;99.90;;;;;;5052070;28;20192;-77
2020/12/25 03:04:43;;;;;;;3.33;1.00;;;2.90;99.90;;;;;;5052176;28;20204;-77
2020/12/25 03:07:10;;;;;;;4.40;1.50;;;2.90;99.90;;;;;;5052348;28;20193;-77
2020/12/25 03:09:37;;;;;;;4.63;1.13;;;2.80;99.90;;;;;;5052284;28;20245;-77
2020/12/25 03:12:03;;;;;;;3.43;1.33;;;2.80;99.90;;;;;;5052181;28;20630;-77
2020/12/25 03:14:30;;;;;;;3.47;1.30;;;2.80;99.90;;;;;;5052146;28;20193;-77
2020/12/25 03:16:57;;;;;;;4.53;1.37;;;2.80;99.90;;;;;;5051922;28;20229;-77
2020/12/25 03:19:23;;;;;;;4.63;0.80;;;2.90;99.90;;;;;;5052211;28;20617;-77
2020/12/25 03:21:49;;;;;;;3.33;0.97;;;3.10;99.90;;;;;;5052180;28;20675;-77
2020/12/25 03:24:17;;;;;;;3.47;0.90;;;3.10;99.90;;;;;;5052143;28;20201;-77
2020/12/25 03:26:43;;;;;;;4.80;1.33;;;3.20;99.90;;;;;;5052075;28;20322;-77
2020/12/25 03:29:09;;;;;;;2.93;1.30;;;3.20;99.90;;;;;;5051939;28;20192;-77
2020/12/25 03:31:37;;;;;;;3.23;0.90;;;3.20;99.90;;;;;;5052292;28;20200;-77
2020/12/25 03:34:03;;;;;;;3.37;1.20;;;3.20;99.90;;;;;;5052262;28;20197;-77
2020/12/25 03:36:31;;;;;;;3.47;1.00;;;3.20;99.90;;;;;;5055833;28;20304;-77
2020/12/25 03:38:57;;;;;;;4.10;0.83;;;3.10;99.90;;;;;;5056208;28;20201;-77
2020/12/25 03:41:23;;;;;;;2.77;0.97;;;3.00;99.90;;;;;;5056248;28;20308;-77
2020/12/25 03:43:50;;;;;;;6.60;0.90;;;3.10;99.90;;;;;;5056244;28;20197;-77
2020/12/25 03:46:16;;;;;;;3.30;0.73;;;3.10;99.90;;;;;;5056037;28;20240;-77
2020/12/25 03:48:43;;;;;;;1.50;0.73;;;3.10;99.90;;;;;;5055789;28;20206;-77
2020/12/25 03:51:09;;;;;;;2.37;0.67;;;3.20;99.90;;;;;;5055836;28;20258;-77
2020/12/25 03:53:36;;;;;;;1.47;0.73;;;3.10;99.90;;;;;;5055723;28;20273;-77
2020/12/25 03:56:02;;;;;;;2.87;0.87;;;3.10;99.90;;;;;;5055513;28;20192;-78
2020/12/25 03:58:29;;;;;;;2.43;0.90;;;3.20;99.90;;;;;;5055447;28;20674;-77
2020/12/25 04:00:55;;;;;;;4.07;1.13;;;3.40;99.90;;;;;;5055620;28;20209;-77
2020/12/25 04:03:21;;;;;;;3.77;1.03;;;3.30;99.90;;;;;;5055607;28;20229;-78
2020/12/25 04:05:48;;;;;;;2.70;0.70;;;3.20;99.90;;;;;;5055555;28;20281;-77
2020/12/25 04:08:15;;;;;;;3.13;0.90;;;3.30;99.90;;;;;;5055397;28;20201;-77
2020/12/25 04:10:41;;;;;;;3.10;1.00;;;3.30;99.90;;;;;;5055447;28;20322;-78
2020/12/25 04:13:11;;;;;;;4.40;1.00;;;3.30;99.90;;;;;;5055094;28;20196;-78
2020/12/25 04:15:39;;;;;;;1.97;1.00;;;3.30;99.90;;;;;;5055652;28;20290;-78
2020/12/25 04:18:06;;;;;;;1.60;0.80;;;3.30;99.90;;;;;;5055021;28;20229;-77
2020/12/25 04:20:32;;;;;;;2.57;0.80;;;3.30;99.90;;;;;;5055018;28;20226;-77
2020/12/25 04:22:59;;;;;;;4.20;0.90;;;3.20;99.90;;;;;;5055084;28;20200;-77
2020/12/25 04:25:26;;;;;;;3.67;1.23;;;3.30;99.90;;;;;;5055007;28;20207;-78
2020/12/25 04:27:52;;;;;;;5.40;1.43;;;3.40;99.90;;;;;;5055181;28;20288;-78
2020/12/25 04:30:18;;;;;;;3.53;0.97;;;3.30;99.90;;;;;;5055196;28;20201;-77
2020/12/25 04:32:45;;;;;;;5.23;1.10;;;3.30;99.90;;;;;;5055079;28;20197;-77
2020/12/25 04:35:11;;;;;;;1.93;1.53;;;3.30;99.90;;;;;;5054770;28;20764;-78
2020/12/25 04:37:37;;;;;;;3.97;1.30;;;3.20;99.90;;;;;;5054674;28;20710;-78
2020/12/25 04:40:05;;;;;;;3.70;1.30;;;3.30;99.90;;;;;;5054781;28;20198;-78
2020/12/25 04:42:38;;;;;;;2.77;1.27;;;3.20;99.90;;;;;;5054972;28;20197;-78
2020/12/25 04:45:05;;;;;;;5.53;1.57;;;3.10;99.90;;;;;;5054909;28;20296;-77
2020/12/25 04:47:34;;;;;;;1.80;1.40;;;3.10;99.90;;;;;;5053776;28;20200;-77
2020/12/25 04:50:00;;;;;;;5.03;1.30;;;3.10;99.90;;;;;;5054620;28;20306;-77
2020/12/25 04:52:27;;;;;;;4.83;1.80;;;3.00;99.90;;;;;;5054562;28;20308;-77
2020/12/25 04:54:53;;;;;;;3.10;1.70;;;3.00;99.90;;;;;;5054349;28;20198;-77
2020/12/25 04:57:20;;;;;;;3.00;1.80;;;3.00;99.90;;;;;;5054226;28;20222;-77
2020/12/25 04:59:47;;;;;;;2.37;1.70;;;3.00;99.90;;;;;;5054728;28;20325;-77
2020/12/25 05:02:15;;;;;;;2.77;1.67;;;2.90;99.90;;;;;;5054365;28;20201;-77
2020/12/25 05:04:42;;;;;;;3.23;1.97;;;2.90;99.90;;;;;;5054987;28;20213;-77
2020/12/25 05:07:09;;;;;;;11.17;1.93;;;2.90;99.90;;;;;;5054160;28;20203;-77
2020/12/25 05:09:35;;;;;;;4.00;1.80;;;2.90;99.90;;;;;;5054355;28;20208;-77
2020/12/25 05:12:01;;;;;;;5.00;2.20;;;3.00;99.90;;;;;;5054484;28;20204;-77
2020/12/25 05:14:30;;;;;;;6.43;2.43;;;2.90;99.90;;;;;;5054301;28;20291;-77
2020/12/25 05:16:58;;;;;;;6.63;2.47;;;3.00;99.90;;;;;;5054215;28;20593;-77
2020/12/25 05:19:27;;;;;;;3.17;2.10;;;2.90;99.90;;;;;;5053880;28;20265;-77
2020/12/25 05:21:56;;;;;;;6.50;2.43;;;2.80;99.90;;;;;;5053927;28;20201;-77
2020/12/25 05:24:22;;;;;;;7.10;2.53;;;2.80;99.90;;;;;;5054204;28;20202;-77
2020/12/25 05:26:53;;;;;;;7.67;2.73;;;2.80;99.90;;;;;;5053999;28;20201;-77
2020/12/25 05:29:22;;;;;;;4.10;2.30;;;2.80;99.90;;;;;;5054074;28;20205;-77
2020/12/25 05:31:50;;;;;;;3.73;2.57;;;2.80;99.90;;;;;;5053836;28;20197;-77
2020/12/25 05:34:18;;;;;;;3.47;2.30;;;2.80;99.90;;;;;;5053595;28;20208;-77
2020/12/25 05:36:50;;;;;;;5.73;2.10;;;2.90;99.90;;;;;;5053829;28;20236;-77
2020/12/25 05:39:25;;;;;;;4.67;2.33;;;2.90;99.90;;;;;;5053913;28;20202;-77
2020/12/25 05:41:55;;;;;;;8.90;2.13;;;3.00;99.90;;;;;;5053713;28;20200;-77
2020/12/25 05:44:23;;;;;;;3.53;2.07;;;3.00;99.90;;;;;;5053812;28;20210;-77
2020/12/25 05:46:50;;;;;;;5.90;2.20;;;3.00;99.90;;;;;;5053393;28;20192;-77
2020/12/25 05:49:16;;;;;;;5.07;2.17;;;2.90;99.90;;;;;;5053799;28;20198;-77
2020/12/25 05:51:49;;;;;;;3.27;2.00;;;3.00;99.90;;;;;;5053512;28;20301;-77
2020/12/25 05:54:20;;;;;;;5.37;1.90;;;2.90;99.90;;;;;;5053490;28;20200;-77
2020/12/25 05:56:51;;;;;;;4.73;1.93;;;2.90;99.90;;;;;;5053223;28;20263;-77
2020/12/25 05:59:24;;;;;;;7.23;1.90;;;2.90;99.90;;;;;;5053307;28;20248;-77
2020/12/25 06:01:54;;;;;;;3.10;1.90;;;3.00;99.90;;;;;;5053580;28;20213;-77
2020/12/25 06:04:25;;;;;;;2.67;1.87;;;3.10;99.90;;;;;;5053418;28;20205;-77
2020/12/25 06:06:52;;;;;;;6.13;1.90;;;3.10;99.90;;;;;;5052645;28;20198;-77
2020/12/25 06:09:20;;;;;;;5.90;2.10;;;3.20;99.90;;;;;;5053373;28;20242;-77
2020/12/25 06:11:51;;;;;;;2.83;1.80;;;3.20;99.90;;;;;;5052614;28;20198;-77
2020/12/25 06:14:18;;;;;;;4.13;1.50;;;3.10;99.90;;;;;;5053068;28;20208;-77
2020/12/25 06:16:55;;;;;;;4.03;1.63;;;3.10;99.90;;;;;;5052780;28;20687;-77
2020/12/25 06:19:29;;;;;;;2.90;1.40;;;3.10;99.90;;;;;;5052955;28;20211;-77
2020/12/25 06:21:59;;;;;;;3.93;1.20;;;3.10;99.90;;;;;;5052990;28;20242;-77
2020/12/25 06:24:31;;;;;;;6.60;1.17;;;3.20;99.90;;;;;;5052711;28;20678;-77
2020/12/25 06:27:00;;;;;;;7.80;1.33;;;3.30;99.90;;;;;;5052693;28;20610;-77
2020/12/25 06:29:27;;;;;;;6.10;0.87;;;3.30;99.90;;;;;;5052880;28;20207;-77
2020/12/25 06:31:56;;;;;;;4.10;0.80;;;3.40;99.90;;;;;;5053273;28;20200;-77
2020/12/25 06:34:22;;;;;;;8.67;1.73;;;3.40;99.90;;;;;;5052687;28;20201;-77
2020/12/25 06:36:49;;;;;;;1.33;0.70;;;3.50;99.90;;;;;;5052402;28;20266;-77
2020/12/25 06:39:16;;;;;;;3.57;0.70;;;3.50;99.90;;;;;;5052498;28;20655;-77
2020/12/25 06:41:43;;;;;;;1.33;0.40;;;3.50;99.90;;;;;;5052555;28;20206;-77
2020/12/25 06:44:13;;;;;;;5.07;1.23;;;3.60;99.90;;;;;;5052596;28;20198;-77
2020/12/25 06:46:47;;;;;;;4.87;0.80;;;3.60;99.90;;;;;;5052592;28;20257;-77
2020/12/25 06:49:15;;;;;;;4.00;0.87;;;3.60;99.90;;;;;;5052374;28;20201;-77
2020/12/25 06:51:42;;;;;;;2.10;0.87;;;3.60;99.90;;;;;;5052290;28;20205;-77
2020/12/25 06:54:17;;;;;;;4.70;0.90;;;3.70;99.90;;;;;;5052867;28;20286;-77
2020/12/25 06:56:44;;;;;;;3.70;0.90;;;3.70;99.90;;;;;;5052202;28;20279;-77
2020/12/25 06:59:15;;;;;;;1.57;0.60;;;3.70;99.90;;;;;;5052208;28;20200;-77
2020/12/25 07:01:43;;;;;;;2.73;0.70;;;3.60;99.90;;;;;;5052293;28;20205;-77
2020/12/25 07:04:24;;;;;;;4.20;0.83;;;3.60;99.90;;;;;;5052406;28;20196;-78
2020/12/25 07:06:52;;;;;;;2.97;0.60;;;3.60;99.90;;;;;;5053066;28;20263;-78
2020/12/25 07:09:19;;;;;;;2.60;0.63;;;3.60;99.90;;;;;;5052480;28;20189;-77
2020/12/25 07:11:50;;;;;;;4.60;0.80;;;3.80;99.90;;;;;;5054783;28;20201;-77
2020/12/25 07:14:16;;;;;;;5.70;0.70;;;3.80;99.90;;;;;;5056073;28;20205;-77
2020/12/25 07:16:42;;;;;;;4.23;0.60;;;3.80;99.90;;;;;;5057415;28;20324;-77
2020/12/25 07:19:09;;;;;;;4.83;0.57;;;3.90;99.90;;;;;;5054107;28;20214;-77
2020/12/25 07:21:36;;;;;;;5.97;0.97;;;3.80;99.90;;;;;;5052602;28;20200;-77
2020/12/25 07:24:03;;;;;;;3.63;1.00;;;3.80;99.90;;;;;;5052135;28;20209;-77
2020/12/25 07:26:29;;;;;;;7.43;0.60;;;3.70;99.90;;;;;;5052378;28;20251;-77
2020/12/25 07:28:57;;;;;;;3.77;1.30;;;3.70;99.90;;;;;;5052329;28;20202;-78
2020/12/25 07:31:23;;;;;;;4.87;0.67;;;3.60;99.90;;;;;;5052638;28;20204;-78
2020/12/25 07:33:54;;;;;;;4.97;0.93;;;3.50;99.90;;;;;;5052560;28;20227;-77
2020/12/25 07:36:22;;;;;;;3.37;0.50;;;3.50;99.90;;;;;;5052602;28;20202;-77
2020/12/25 07:39:00;;;;;;;2.37;0.73;;;3.40;99.90;;;;;;5052050;28;20198;-77
2020/12/25 07:41:27;;;;;;;4.20;0.50;;;3.40;99.90;;;;;;5051986;28;20200;-77
2020/12/25 07:43:55;;;;;;;5.80;0.80;;;3.50;99.90;;;;;;5052317;28;20198;-77
2020/12/25 07:46:22;;;;;;;5.57;0.80;;;3.50;99.90;;;;;;5052326;28;20296;-77
2020/12/25 07:48:48;;;;;;;5.10;1.17;;;3.50;99.90;;;;;;5052112;28;20201;-77
2020/12/25 07:51:15;;;;;;;3.47;1.20;;;3.50;99.90;;;;;;5051935;28;20285;-77
2020/12/25 07:53:50;;;;;;;4.60;0.80;;;3.60;99.90;;;;;;5051846;28;20198;-77
2020/12/25 07:56:20;;;;;;;4.57;0.80;;;3.70;99.90;;;;;;5051762;28;20202;-77
2020/12/25 07:58:48;;;;;;;5.03;1.00;;;3.70;99.90;;;;;;5052068;28;20206;-77
2020/12/25 08:01:17;;;;;;;4.90;0.80;;;3.70;99.90;;;;;;5051844;28;20622;-78
2020/12/25 08:03:44;;;;;;;3.30;0.70;;;3.70;99.90;;;;;;5051847;28;20204;-78
2020/12/25 08:06:13;;;;;;;3.27;0.60;;;3.80;99.90;;;;;;5051849;28;20251;-78
2020/12/25 08:08:43;;;;;;;2.20;0.80;;;3.70;99.90;;;;;;5050805;28;20543;-77
2020/12/25 08:11:12;;;;;;;2.43;0.60;;;3.80;99.90;;;;;;5050124;28;20202;-78
2020/12/25 08:13:40;;;;;;;7.30;1.03;;;3.90;99.90;;;;;;5051688;28;20294;-78
2020/12/25 08:16:06;;;;;;;2.53;0.60;;;3.90;99.90;;;;;;5051785;28;20228;-78
2020/12/25 08:18:33;;;;;;;4.63;0.63;;;4.00;99.90;;;;;;5051417;28;20237;-78
2020/12/25 08:21:01;;;;;;;4.43;0.90;;;4.00;99.90;;;;;;5051818;28;20396;-78
2020/12/25 08:23:31;;;;;;;6.43;1.17;;;4.10;99.90;;;;;;5055319;28;20193;-78
2020/12/25 08:25:57;;;;;;;4.20;0.90;;;4.20;99.90;;;;;;5054942;28;20775;-78
2020/12/25 08:28:25;;;;;;;2.27;0.77;;;4.30;99.90;;;;;;5055151;28;20291;-78
2020/12/25 08:30:51;;;;;;;4.20;0.80;;;4.30;99.90;;;;;;5055062;28;20202;-78
2020/12/25 08:33:24;;;;;;;8.33;0.90;;;4.30;99.90;;;;;;5054975;28;20255;-78
2020/12/25 08:35:51;;;;;;;3.20;0.70;;;4.40;99.90;;;;;;5055238;28;20247;-78
2020/12/25 08:38:17;;;;;;;3.30;1.20;;;4.50;99.90;;;;;;5054858;28;20232;-78
2020/12/25 08:40:45;;;;;;;2.47;0.67;;;4.50;99.90;;;;;;5054717;28;20203;-78
2020/12/25 08:43:13;;;;;;;3.07;0.63;;;4.50;99.90;;;;;;5054613;28;20201;-78
2020/12/25 08:45:53;;;;;;;6.37;0.80;;;4.60;99.90;;;;;;5054799;28;20289;-78
2020/12/25 08:48:19;;;;;;;3.47;0.77;;;4.60;99.90;;;;;;5054753;28;20568;-78
2020/12/25 08:50:46;;;;;;;4.63;0.80;;;4.40;99.90;;;;;;5054676;28;20238;-78
2020/12/25 08:53:15;;;;;;;7.03;1.13;;;4.50;99.90;;;;;;5054853;28;20202;-78
2020/12/25 08:55:42;;;;;;;2.33;0.73;;;4.50;99.90;;;;;;5054679;28;20262;-78
2020/12/25 08:58:08;;;;;;;5.73;1.07;;;4.40;99.90;;;;;;5054614;28;20227;-78
2020/12/25 09:00:35;;;;;;;2.73;0.73;;;4.50;99.90;;;;;;5053744;28;20200;-78
2020/12/25 09:03:02;;;;;;;4.00;1.00;;;4.40;99.90;;;;;;5054915;28;20319;-78
2020/12/25 09:05:29;;;;;;;5.10;1.03;;;4.50;99.90;;;;;;5054340;28;20237;-78
2020/12/25 09:07:55;;;;;;;9.10;1.47;;;4.40;99.90;;;;;;5054460;28;20198;-78
2020/12/25 09:10:22;;;;;;;5.73;1.30;;;4.40;99.90;;;;;;5054196;28;20197;-78
2020/12/25 09:12:48;;;;;;;7.93;1.57;;;4.40;99.90;;;;;;5054237;28;20313;-78
2020/12/25 09:15:14;;;;;;;3.73;1.20;;;4.50;99.90;;;;;;5054120;28;20760;-78
2020/12/25 09:17:41;;;;;;;7.93;2.00;;;4.40;99.90;;;;;;5053897;28;20772;-78
2020/12/25 09:20:08;;;;;;;8.57;2.00;;;4.50;99.90;;;;;;5053899;28;20640;-77
2020/12/25 09:22:34;;;;;;;7.80;1.90;;;4.60;99.90;;;;;;5053889;28;20679;-79
2020/12/25 09:25:01;;;;;;;8.73;1.50;;;4.70;99.90;;;;;;5053987;28;20199;-78
2020/12/25 09:27:27;;;;;;;6.83;2.00;;;4.80;99.90;;;;;;5053834;28;20690;-78
2020/12/25 09:29:53;;;;;;;5.17;1.47;;;4.90;99.90;;;;;;5053591;28;20234;-78
2020/12/25 09:32:20;;;;;;;5.10;1.40;;;4.90;99.90;;;;;;5053527;28;20283;-78
2020/12/25 09:34:46;;;;;;;5.07;1.40;;;4.90;99.90;;;;;;5053759;28;20201;-78
2020/12/25 09:37:13;;;;;;;9.50;1.43;;;5.00;99.90;;;;;;5053479;28;20237;-78
2020/12/25 09:39:39;;;;;;;7.73;1.63;;;5.10;99.90;;;;;;5053784;28;20245;-79
2020/12/25 09:42:06;;;;;;;19.17;7.03;;;5.10;99.90;;;;;;5053642;28;20239;-78
2020/12/25 09:44:32;;;;;;;16.17;5.90;;;5.20;99.90;;;;;;5053513;28;20682;-78
2020/12/25 09:46:58;;;;;;;5.00;2.93;;;5.20;99.90;;;;;;5053637;28;20201;-78
2020/12/25 09:49:25;;;;;;;8.63;1.87;;;5.10;99.90;;;;;;5053691;28;20239;-78
2020/12/25 09:51:51;;;;;;;6.60;1.60;;;5.00;99.90;;;;;;5053791;28;20197;-78
2020/12/25 09:54:18;;;;;;;7.30;2.03;;;4.90;99.90;;;;;;5054823;28;20205;-78
2020/12/25 09:56:45;;;;;;;4.60;1.73;;;4.80;99.90;;;;;;5053417;28;20286;-78
2020/12/25 09:59:11;;;;;;;7.10;2.00;;;4.80;99.90;;;;;;5053468;28;20210;-78
2020/12/25 10:01:37;;;;;;;4.67;1.60;;;4.70;99.90;;;;;;5053372;28;20210;-78
2020/12/25 10:04:04;;;;;;;4.93;1.73;;;4.70;99.90;;;;;;5053248;28;20225;-78
2020/12/25 10:06:30;;;;;;;7.33;1.70;;;4.80;99.90;;;;;;5053553;28;20230;-78
2020/12/25 10:08:56;;;;;;;7.50;2.00;;;5.00;99.90;;;;;;5053143;28;20288;-78
2020/12/25 10:11:23;;;;;;;6.33;1.87;;;5.10;99.90;;;;;;5053073;28;20193;-78
2020/12/25 10:13:50;;;;;;;8.17;1.60;;;5.20;99.90;;;;;;5052970;28;20197;-78
2020/12/25 10:16:18;;;;;;;7.67;2.00;;;5.40;99.90;;;;;;5053403;28;20301;-78
2020/12/25 10:18:44;;;;;;;6.97;1.50;;;5.50;99.90;;;;;;5052854;28;20281;-78
2020/12/25 10:21:11;;;;;;;8.13;1.50;;;5.60;99.90;;;;;;5052929;28;20213;-78
2020/12/25 10:23:37;;;;;;;7.73;1.63;;;5.60;99.90;;;;;;5052760;28;20197;-78
2020/12/25 10:26:04;;;;;;;9.23;1.47;;;5.60;99.90;;;;;;5052731;28;20203;-78
2020/12/25 10:28:31;;;;;;;7.97;1.47;;;5.70;99.90;;;;;;5052895;28;20212;-77
2020/12/25 10:30:57;;;;;;;8.93;1.17;;;5.40;99.90;;;;;;5052733;28;20207;-78
2020/12/25 10:33:24;;;;;;;7.87;1.27;;;5.40;99.90;;;;;;5052715;28;20201;-78
2020/12/25 10:35:50;;;;;;;8.47;1.50;;;5.20;99.90;;;;;;5052740;28;20198;-78
2020/12/25 10:38:16;;;;;;;8.33;1.47;;;5.20;99.90;;;;;;5052664;28;20716;-78
2020/12/25 10:40:43;;;;;;;9.43;1.50;;;5.20;99.90;;;;;;5052435;28;20609;-78
2020/12/25 10:43:09;;;;;;;6.20;1.20;;;5.30;99.90;;;;;;5052608;28;20296;-78
2020/12/25 10:45:36;;;;;;;6.30;1.23;;;5.30;99.90;;;;;;5052213;28;20252;-78
2020/12/25 10:48:02;;;;;;;6.00;1.27;;;5.30;99.90;;;;;;5052603;28;20763;-78
2020/12/25 10:50:29;;;;;;;8.90;1.50;;;5.40;99.90;;;;;;5052468;28;20239;-78
2020/12/25 10:52:55;;;;;;;5.17;1.10;;;5.50;99.90;;;;;;5052862;28;20293;-79
2020/12/25 10:55:21;;;;;;;6.23;1.20;;;5.70;99.90;;;;;;5052418;28;20207;-78
2020/12/25 10:57:48;;;;;;;6.67;1.43;;;5.80;99.90;;;;;;5052349;28;20234;-78
2020/12/25 11:00:14;;;;;;;7.33;1.03;;;6.00;99.90;;;;;;5052667;28;20201;-78
2020/12/25 11:02:41;;;;;;;7.77;1.17;;;6.20;99.90;;;;;;5052351;28;20201;-78
2020/12/25 11:05:08;;;;;;;6.70;1.30;;;6.20;99.90;;;;;;5052749;28;20342;-78
2020/12/25 11:07:34;;;;;;;6.87;1.37;;;6.20;99.90;;;;;;5052591;28;20209;-78
2020/12/25 11:10:00;;;;;;;11.07;1.90;;;6.10;99.90;;;;;;5052297;28;20286;-78
2020/12/25 11:12:27;;;;;;;7.60;1.20;;;6.00;99.90;;;;;;5051994;28;20672;-77
2020/12/25 11:14:53;;;;;;;6.03;0.97;;;5.80;99.90;;;;;;5052083;28;20289;-78
2020/12/25 11:17:19;;;;;;;5.13;0.97;;;5.70;99.90;;;;;;5052181;28;20254;-78
2020/12/25 11:19:47;;;;;;;8.77;1.47;;;5.70;99.90;;;;;;5052175;28;20205;-78
2020/12/25 11:22:14;;;;;;;10.13;1.50;;;5.70;99.90;;;;;;5052032;28;20212;-78
2020/12/25 11:24:41;;;;;;;5.27;0.93;;;5.90;99.90;;;;;;5051785;28;20200;-78
2020/12/25 11:27:08;;;;;;;5.77;1.47;;;5.80;99.90;;;;;;5052328;28;20685;-78
2020/12/25 11:29:34;;;;;;;7.47;1.23;;;5.80;99.90;;;;;;5052504;28;20293;-78
2020/12/25 11:32:01;;;;;;;8.50;1.10;;;5.90;99.90;;;;;;5052228;28;20200;-78
2020/12/25 11:34:28;;;;;;;9.97;1.50;;;6.00;99.90;;;;;;5057341;28;20229;-78
2020/12/25 11:36:56;;;;;;;4.63;1.67;;;6.00;99.90;;;;;;5060594;28;20264;-77
2020/12/25 11:39:22;;;;;;;5.87;1.23;;;6.10;99.90;;;;;;5054878;28;20208;-78
2020/12/25 11:41:48;;;;;;;6.17;1.50;;;6.20;99.90;;;;;;5052158;28;20292;-78
2020/12/25 11:44:15;;;;;;;6.73;1.80;;;6.10;99.90;;;;;;5052193;28;20208;-78
2020/12/25 11:46:41;;;;;;;7.43;1.20;;;6.10;99.90;;;;;;5051863;28;20207;-78
2020/12/25 11:49:08;;;;;;;7.53;1.40;;;6.00;99.90;;;;;;5051887;28;20282;-78
2020/12/25 11:51:35;;;;;;;7.10;1.23;;;5.90;99.90;;;;;;5051757;28;20263;-78
2020/12/25 11:54:02;;;;;;;7.40;1.40;;;5.90;99.90;;;;;;5052112;28;20286;-78
2020/12/25 11:56:30;;;;;;;4.07;1.30;;;5.90;99.90;;;;;;5054292;28;20300;-78
2020/12/25 11:58:57;;;;;;;8.70;1.47;;;6.00;99.90;;;;;;5055604;28;20237;-78
2020/12/25 12:01:24;;;;;;;4.80;1.30;;;6.00;99.90;;;;;;5055804;28;20196;-79
2020/12/25 12:03:50;;;;;;;3.47;1.43;;;6.00;99.90;;;;;;5055451;28;20197;-78
2020/12/25 12:06:20;;;;;;;7.73;0.97;;;6.00;99.90;;;;;;5055257;28;20292;-78
2020/12/25 12:08:46;;;;;;;4.27;0.83;;;6.10;99.90;;;;;;5055408;28;20211;-78
2020/12/25 12:11:14;;;;;;;8.80;1.27;;;6.10;99.90;;;;;;5055502;28;20204;-78
2020/12/25 12:13:40;;;;;;;4.93;0.83;;;6.20;99.90;;;;;;5055213;28;20742;-78
2020/12/25 12:16:13;;;;;;;8.30;1.20;;;6.30;99.90;;;;;;5055190;28;20206;-78
2020/12/25 12:18:40;;;;;;;11.83;1.30;;;6.60;99.90;;;;;;5055039;28;20237;-77
2020/12/25 12:21:08;;;;;;;6.33;1.03;;;6.80;99.90;;;;;;5055203;28;20275;-78
2020/12/25 12:23:34;;;;;;;7.27;1.03;;;6.90;99.90;;;;;;5055235;28;20287;-78
2020/12/25 12:26:01;;;;;;;4.20;1.23;;;6.90;99.90;;;;;;5055158;28;20548;-78
2020/12/25 12:28:28;;;;;;;6.90;1.10;;;6.90;99.90;;;;;;5055089;28;20259;-78
2020/12/25 12:30:54;;;;;;;5.47;0.83;;;6.70;99.90;;;;;;5055162;28;20254;-78
2020/12/25 12:33:21;;;;;;;6.27;1.30;;;6.60;99.90;;;;;;5054781;28;20286;-78
2020/12/25 12:35:47;;;;;;;4.93;1.13;;;6.50;99.90;;;;;;5054870;28;20787;-78
2020/12/25 12:38:14;;;;;;;4.43;0.90;;;6.50;99.90;;;;;;5055552;28;20226;-78
2020/12/25 12:40:40;;;;;;;10.00;0.87;;;6.40;99.90;;;;;;5055292;28;20203;-78
2020/12/25 12:43:07;;;;;;;4.27;1.00;;;6.40;99.90;;;;;;5055194;28;20205;-78
2020/12/25 12:45:34;;;;;;;5.53;0.97;;;6.40;99.90;;;;;;5055983;28;20288;-78
2020/12/25 12:48:00;;;;;;;4.77;1.00;;;6.40;99.90;;;;;;5054796;28;20328;-78
2020/12/25 12:50:27;;;;;;;3.63;1.07;;;6.60;99.90;;;;;;5054558;28;20690;-78
2020/12/25 12:52:53;;;;;;;3.87;0.93;;;6.60;99.90;;;;;;5054767;28;20292;-78
2020/12/25 12:55:19;;;;;;;4.03;1.10;;;6.60;99.90;;;;;;5054857;28;20224;-77
2020/12/25 12:57:46;;;;;;;9.93;1.17;;;6.70;99.90;;;;;;5054490;28;20218;-78